Time;durP1;ratioP1;P1;durP2;ratioP2;P2;SDS_P1;SDS_P2;PMS_P1;PMS_P2;Temp;Humidity;BMP_temperature;BMP_pressure;BME280_temperature;BME280_humidity;BME280_pressure;Samples;Min_cycle;Max_cycle;Signal;HPM_P1;HPM_P2
2023/05/03 00:02:11;;;;;;;;;;;14.40;38.80;;;12.90;41.33;102233.97;12254160;19;19952;-87
2023/05/03 00:06:14;;;;;;;;;;;14.30;38.80;;;13.06;41.37;102269.16;12255545;19;19907;-87
2023/05/03 00:10:15;;;;;;;;;;;14.30;38.80;;;13.07;41.33;102270.88;12253971;19;20649;-86
2023/05/03 00:14:17;;;;;;;;;;;14.30;38.80;;;13.04;41.29;102264.88;12251013;19;19942;-87
2023/05/03 00:18:18;;;;;;;;;;;14.30;38.80;;;13.08;41.33;102269.09;12250244;19;19914;-87
2023/05/03 00:22:21;;;;;;;;;;;14.30;38.80;;;12.83;41.30;102228.16;12250087;19;20595;-87
2023/05/03 00:26:22;;;;;;;;;;;14.30;38.90;;;13.07;41.32;102268.25;12252813;19;20555;-87
2023/05/03 00:30:24;;;;;;;;;;;14.30;38.80;;;12.86;41.22;102227.19;12255247;19;19922;-87
2023/05/03 00:34:26;;;;;;;;;;;14.30;38.80;;;13.04;41.29;102264.88;12253717;19;19921;-87
2023/05/03 00:38:28;;;;;;;;;;;14.30;38.80;;;13.11;41.25;102289.09;12252527;19;19911;-87
2023/05/03 00:42:33;;;;;;;;;;;14.30;38.80;;;13.00;41.41;102265.94;12251341;19;19923;-88
2023/05/03 00:46:34;;;;;;;;;;;14.20;38.80;;;13.04;41.34;102278.88;12253492;19;19919;-87
2023/05/03 00:50:36;;;;;;;;;;;14.30;39.20;;;12.96;41.25;102265.22;12254852;19;19948;-87
2023/05/03 00:54:38;;;;;;;;;;;14.20;38.80;;;13.01;41.38;102278.13;12254563;19;19974;-87
2023/05/03 00:58:40;;;;;;;;;;;14.20;38.80;;;13.03;41.29;102285.03;12250575;19;19915;-87
2023/05/03 01:02:42;;;;;;;;;;;14.20;38.80;;;12.72;41.31;102238.22;12252741;19;19910;-87
2023/05/03 01:06:58;;;;;;;;;;;14.20;38.80;;;12.79;41.14;102265.03;12255741;19;19918;-87
2023/05/03 01:11:01;;;;;;;;;;;14.10;38.80;;;12.90;41.38;102288.19;12263262;19;19923;-87
2023/05/03 01:15:16;;;;;;;;;;;14.10;38.80;;;12.86;41.26;102289.25;12264174;19;19956;-87
2023/05/03 01:19:33;;;;;;;;;;;14.00;38.80;;;12.74;41.33;102270.44;12261448;19;19922;-87
2023/05/03 01:23:53;;;;;;;;;;;14.00;38.80;;;12.80;41.35;102291.19;12261605;19;20333;-86
2023/05/03 01:27:54;;;;;;;;;;;13.90;38.80;;;12.65;41.40;102270.81;12258015;19;19942;-86
2023/05/03 01:32:02;;;;;;;;;;;13.90;38.80;;;12.68;41.21;102282.94;12261010;19;19918;-87
2023/05/03 01:36:19;;;;;;;;;;;13.90;38.80;;;12.66;41.29;102287.41;12261515;19;19925;-86
2023/05/03 01:40:21;;;;;;;;;;;13.80;38.80;;;12.54;41.46;102288.72;12260506;19;20343;-87
2023/05/03 01:44:23;;;;;;;;;;;13.80;38.80;;;12.17;41.29;102241.19;12255870;19;19915;-86
2023/05/03 01:48:25;;;;;;;;;;;13.70;38.80;;;12.44;41.40;102289.97;12257667;19;20348;-87
2023/05/03 01:52:26;;;;;;;;;;;13.60;38.80;;;12.39;41.37;102291.03;12260321;19;20339;-86
2023/05/03 01:56:30;;;;;;;;;;;13.60;38.80;;;12.31;41.28;102290.47;12255184;19;19950;-87
2023/05/03 02:00:32;;;;;;;;;;;13.50;38.80;;;12.29;41.26;102289.66;12259236;19;19947;-86
2023/05/03 02:04:34;;;;;;;;;;;13.50;38.80;;;12.29;41.21;102297.50;12256503;19;20246;-86
2023/05/03 02:08:36;;;;;;;;;;;13.60;38.90;;;12.22;41.38;102285.53;12258542;19;19926;-86
2023/05/03 02:12:42;;;;;;;;;;;13.40;38.90;;;11.99;41.37;102255.00;12262047;19;20261;-87
2023/05/03 02:16:44;;;;;;;;;;;13.40;38.90;;;12.20;41.30;102305.69;12260430;19;19911;-87
2023/05/03 02:20:48;;;;;;;;;;;13.50;39.00;;;12.08;41.33;102285.22;12259318;19;20254;-86
2023/05/03 02:24:49;;;;;;;;;;;13.30;38.90;;;11.87;41.44;102264.13;12257853;19;19927;-87
2023/05/03 02:28:51;;;;;;;;;;;13.30;38.90;;;11.83;41.40;102261.66;12254814;19;19919;-86
2023/05/03 02:32:53;;;;;;;;;;;13.20;38.90;;;11.81;41.40;102266.09;12258430;19;19948;-87
2023/05/03 02:36:55;;;;;;;;;;;13.20;38.90;;;11.92;41.24;102306.69;12257072;19;19918;-87
2023/05/03 02:40:58;;;;;;;;;;;13.10;39.00;;;11.78;41.54;102301.06;12256580;19;20238;-87
2023/05/03 02:45:00;;;;;;;;;;;13.00;38.90;;;11.72;41.46;102294.28;12258964;19;19943;-86
2023/05/03 02:49:03;;;;;;;;;;;13.00;39.00;;;11.64;41.53;102296.31;12254945;19;19923;-86
2023/05/03 02:53:05;;;;;;;;;;;13.00;39.00;;;11.41;41.52;102260.47;12255775;19;19923;-87
2023/05/03 02:57:08;;;;;;;;;;;12.90;39.00;;;11.67;41.38;102332.00;12253722;19;19964;-86
2023/05/03 03:01:10;;;;;;;;;;;12.80;39.00;;;11.50;41.38;102307.25;12253605;19;19927;-86
2023/05/03 03:05:12;;;;;;;;;;;12.80;39.00;;;11.54;41.66;102325.47;12257525;19;19926;-87
2023/05/03 03:09:17;;;;;;;;;;;12.70;39.00;;;11.49;41.58;102323.84;12248774;19;19990;-86
2023/05/03 03:13:19;;;;;;;;;;;12.80;39.10;;;11.43;41.46;102325.81;12255550;19;19911;-87
2023/05/03 03:17:21;;;;;;;;;;;12.70;39.10;;;11.43;41.58;102329.28;12253395;19;19922;-86
2023/05/03 03:21:23;;;;;;;;;;;12.70;39.10;;;11.34;41.63;102328.72;12253581;19;20389;-86
2023/05/03 03:25:25;;;;;;;;;;;12.60;39.10;;;11.37;41.55;102350.41;12252565;19;19925;-86
2023/05/03 03:29:31;;;;;;;;;;;12.50;39.10;;;10.95;41.46;102293.34;12246586;19;19922;-86
2023/05/03 03:33:34;;;;;;;;;;;12.50;39.10;;;11.14;41.49;102326.75;12251523;19;19919;-86
2023/05/03 03:37:41;;;;;;;;;;;12.40;39.10;;;11.04;41.32;102320.94;12251828;19;19944;-86
2023/05/03 03:41:43;;;;;;;;;;;12.40;39.20;;;11.06;41.72;102333.06;12255218;19;20250;-86
2023/05/03 03:45:45;;;;;;;;;;;12.40;39.20;;;10.95;41.66;102323.84;12252825;19;19918;-86
2023/05/03 03:49:49;;;;;;;;;;;12.30;39.20;;;10.95;41.51;102343.00;12247765;19;20348;-86
2023/05/03 03:53:51;;;;;;;;;;;12.20;39.10;;;10.93;41.70;102347.41;12254150;19;20330;-87
2023/05/03 03:57:54;;;;;;;;;;;12.20;39.20;;;10.84;41.68;102342.47;12251729;19;19929;-87
2023/05/03 04:01:58;;;;;;;;;;;12.20;39.20;;;10.88;41.68;102361.53;12238083;19;19919;-87
2023/05/03 04:06:00;;;;;;;;;;;12.10;39.30;;;10.89;41.63;102379.78;12253535;19;20276;-87
2023/05/03 04:10:03;;;;;;;;;;;12.00;39.30;;;10.83;41.71;102379.97;12248818;19;19927;-86
2023/05/03 04:14:06;;;;;;;;;;;12.00;39.70;;;10.70;41.66;102370.78;12253628;19;19923;-86
2023/05/03 04:18:10;;;;;;;;;;;12.00;39.30;;;10.79;41.65;102394.88;12248988;19;20305;-87
2023/05/03 04:22:14;;;;;;;;;;;12.00;39.40;;;10.76;41.76;102391.50;12247275;19;19919;-85
2023/05/03 04:26:16;;;;;;;;;;;11.90;39.40;;;10.76;41.82;102400.19;12249971;19;19935;-86
2023/05/03 04:30:18;;;;;;;;;;;11.90;39.40;;;10.69;41.68;102393.41;12252949;19;19919;-86
2023/05/03 04:34:24;;;;;;;;;;;11.90;39.40;;;10.65;41.70;102401.41;12245049;19;19986;-86
2023/05/03 04:38:28;;;;;;;;;;;11.90;39.50;;;10.70;41.61;102407.38;12249293;19;19919;-85
2023/05/03 04:42:34;;;;;;;;;;;11.90;39.40;;;10.62;41.77;102400.59;12244952;19;19943;-86
2023/05/03 04:46:36;;;;;;;;;;;11.90;39.50;;;10.66;41.81;102421.41;12249798;19;19971;-86
2023/05/03 04:50:37;;;;;;;;;;;11.80;39.50;;;10.56;41.72;102411.22;12250702;19;19915;-86
2023/05/03 04:54:42;;;;;;;;;;;11.80;39.50;;;10.45;41.79;102392.38;12246114;19;19915;-86
2023/05/03 04:58:44;;;;;;;;;;;11.80;39.50;;;10.62;41.86;102428.47;12244058;19;19911;-86
2023/05/03 05:02:47;;;;;;;;;;;11.80;40.00;;;10.51;41.74;102410.50;12244323;19;19982;-85
2023/05/03 05:06:52;;;;;;;;;;;11.80;39.60;;;10.61;41.87;102431.97;12245973;19;19915;-86
2023/05/03 05:11:00;;;;;;;;;;;11.80;39.60;;;10.47;41.88;102402.78;12244942;19;20257;-85
2023/05/03 05:15:06;;;;;;;;;;;11.80;39.60;;;10.32;42.04;102380.56;12246554;19;19971;-85
2023/05/03 05:19:08;;;;;;;;;;;11.80;39.60;;;10.52;41.88;102421.78;12243583;19;19939;-86
2023/05/03 05:23:10;;;;;;;;;;;11.80;39.60;;;10.40;42.18;102404.72;12244774;19;19922;-85
2023/05/03 05:27:15;;;;;;;;;;;11.80;39.60;;;10.51;41.87;102420.94;12243733;19;20328;-85
2023/05/03 05:31:16;;;;;;;;;;;11.90;39.70;;;10.50;41.92;102413.97;12244878;19;20607;-85
2023/05/03 05:35:18;;;;;;;;;;;11.90;39.80;;;10.66;41.89;102440.53;12250075;19;19907;-84
2023/05/03 05:39:22;;;;;;;;;;;11.90;39.70;;;10.62;42.12;102437.16;12242063;19;19919;-86
2023/05/03 05:43:24;;;;;;;;;;;11.90;39.80;;;10.56;42.05;102419.06;12246366;19;19918;-86
2023/05/03 05:47:26;;;;;;;;;;;12.00;39.90;;;10.70;42.21;102431.72;12242044;19;19975;-85
2023/05/03 05:51:30;;;;;;;;;;;12.00;40.00;;;10.70;42.15;102415.22;12247639;19;19925;-85
2023/05/03 05:55:32;;;;;;;;;;;12.10;40.00;;;10.89;42.24;102442.50;12256426;19;19938;-85
2023/05/03 05:59:35;;;;;;;;;;;12.20;40.00;;;10.98;42.38;102438.78;12251997;19;19922;-86
2023/05/03 06:03:37;;;;;;;;;;;12.30;40.10;;;11.02;42.32;102420.34;12259653;19;19949;-85
2023/05/03 06:07:41;;;;;;;;;;;12.50;40.10;;;11.25;42.57;102442.31;12251667;19;20341;-85
2023/05/03 06:11:43;;;;;;;;;;;12.60;40.10;;;11.44;42.28;102458.31;12256602;19;19915;-86
2023/05/03 06:15:46;;;;;;;;;;;12.70;40.10;;;11.53;42.54;102455.44;12254387;19;19918;-85
2023/05/03 06:19:48;;;;;;;;;;;12.90;40.20;;;11.76;42.36;102470.38;12249723;19;19914;-85
2023/05/03 06:23:50;;;;;;;;;;;12.90;40.10;;;11.89;42.37;102478.72;12251801;19;19919;-86
2023/05/03 06:27:52;;;;;;;;;;;13.20;40.00;;;11.99;42.50;102484.50;12247832;19;20324;-87
2023/05/03 06:31:56;;;;;;;;;;;13.30;40.00;;;11.97;42.43;102463.63;12253999;19;19948;-86
2023/05/03 06:35:59;;;;;;;;;;;13.60;40.00;;;11.96;42.48;102456.66;12253663;19;19946;-85
2023/05/03 06:40:00;;;;;;;;;;;13.50;39.80;;;12.07;42.25;102474.63;12249430;19;19914;-86
2023/05/03 06:44:03;;;;;;;;;;;13.50;39.70;;;12.05;42.27;102458.13;12249412;19;19923;-85
2023/05/03 06:48:05;;;;;;;;;;;13.60;39.70;;;12.17;42.42;102476.03;12249167;19;20329;-86
2023/05/03 06:52:07;;;;;;;;;;;13.60;39.60;;;12.08;42.35;102445.78;12251775;19;20257;-86
2023/05/03 06:56:08;;;;;;;;;;;13.60;39.60;;;12.11;42.33;102452.69;12254293;19;20347;-86
2023/05/03 07:00:10;;;;;;;;;;;13.70;39.60;;;12.32;42.27;102482.53;12251330;19;19918;-86
2023/05/03 07:04:12;;;;;;;;;;;13.70;39.50;;;12.35;42.31;102479.81;12249801;19;19926;-85
2023/05/03 07:08:14;;;;;;;;;;;13.80;39.60;;;12.40;42.17;102486.59;12250725;19;19911;-86
2023/05/03 07:12:15;;;;;;;;;;;13.90;39.50;;;12.48;42.34;102485.50;12253458;19;19919;-86
2023/05/03 07:16:17;;;;;;;;;;;13.90;39.40;;;12.47;42.29;102470.66;12252154;19;19919;-86
2023/05/03 07:20:19;;;;;;;;;;;13.90;39.40;;;12.60;42.36;102482.44;12252144;19;20269;-86
2023/05/03 07:24:23;;;;;;;;;;;14.00;39.50;;;12.72;42.42;102474.13;12249887;19;19975;-86
2023/05/03 07:28:25;;;;;;;;;;;14.10;39.60;;;12.87;42.49;102479.72;12250513;19;20285;-86
2023/05/03 07:32:26;;;;;;;;;;;14.20;39.50;;;12.90;42.43;102461.25;12251938;19;19921;-86
2023/05/03 07:36:28;;;;;;;;;;;14.40;39.50;;;13.03;42.49;102465.13;12252624;19;19911;-86
2023/05/03 07:40:31;;;;;;;;;;;14.50;38.60;;;13.06;42.47;102463.22;12252100;19;20349;-86
2023/05/03 07:44:33;;;;;;;;;;;14.60;38.90;;;13.33;42.34;102480.66;12247906;19;20289;-87
2023/05/03 07:48:35;;;;;;;;;;;14.70;39.10;;;13.36;42.46;102459.53;12246573;19;19934;-86
2023/05/03 07:52:37;;;;;;;;;;;14.80;39.10;;;13.34;42.48;102427.25;12249407;19;19915;-85
2023/05/03 07:56:39;;;;;;;;;;;15.00;39.20;;;13.76;42.44;102465.84;12241739;19;20281;-86
2023/05/03 08:00:41;;;;;;;;;;;15.10;39.00;;;13.68;42.28;102427.59;12251423;19;19919;-86
2023/05/03 08:04:43;;;;;;;;;;;15.30;39.00;;;13.92;42.23;102459.03;12248587;19;19926;-86
2023/05/03 08:08:44;;;;;;;;;;;15.40;38.70;;;13.97;42.35;102453.59;12247886;19;19958;-86
2023/05/03 08:12:46;;;;;;;;;;;15.50;38.80;;;14.12;42.24;102448.56;12251472;19;19966;-86
2023/05/03 08:16:48;;;;;;;;;;;15.60;38.80;;;14.42;42.32;102471.81;12241752;19;19927;-86
2023/05/03 08:20:50;;;;;;;;;;;15.80;38.40;;;14.55;42.19;102456.38;12247854;19;20430;-87
2023/05/03 08:24:52;;;;;;;;;;;16.00;38.70;;;14.69;42.27;102456.63;12243214;19;19922;-86
2023/05/03 08:28:53;;;;;;;;;;;16.10;38.70;;;14.80;42.26;102457.00;12243299;19;19927;-86
2023/05/03 08:32:55;;;;;;;;;;;16.30;38.50;;;14.93;42.29;102466.94;12245561;19;20654;-87
2023/05/03 08:36:56;;;;;;;;;;;16.40;38.70;;;14.78;42.16;102421.16;12247579;19;19918;-87
2023/05/03 08:41:03;;;;;;;;;;;16.50;38.00;;;15.05;42.19;102448.81;12243382;19;19922;-86
2023/05/03 08:45:08;;;;;;;;;;;16.50;38.40;;;15.22;42.18;102462.97;12244869;19;19919;-86
2023/05/03 08:49:11;;;;;;;;;;;16.70;37.70;;;14.93;41.96;102403.81;12242609;19;20450;-86
2023/05/03 08:53:12;;;;;;;;;;;16.80;37.10;;;15.24;41.88;102458.50;12245812;19;20283;-86
2023/05/03 08:57:14;;;;;;;;;;;16.80;37.40;;;15.36;42.06;102464.94;12243163;19;19919;-86
2023/05/03 09:01:19;;;;;;;;;;;16.90;36.80;;;15.51;41.94;102479.19;12243064;19;20272;-86
2023/05/03 09:05:20;;;;;;;;;;;16.90;37.40;;;15.62;41.96;102477.72;12246782;19;19922;-86
2023/05/03 09:09:31;;;;;;;;;;;17.00;37.50;;;15.63;41.89;102462.78;12244043;19;19930;-87
2023/05/03 09:13:32;;;;;;;;;;;17.10;37.50;;;15.77;41.72;102480.56;12247200;19;20354;-86
2023/05/03 09:17:33;;;;;;;;;;;17.20;37.40;;;15.83;41.81;102472.38;12245272;19;19919;-87
2023/05/03 09:21:35;;;;;;;;;;;17.30;37.80;;;15.85;41.82;102466.09;12248362;19;19911;-87
2023/05/03 09:25:45;;;;;;;;;;;17.40;37.90;;;15.93;41.62;102469.22;12246916;19;20262;-87
2023/05/03 09:29:47;;;;;;;;;;;17.40;37.60;;;16.04;41.48;102487.13;12253763;19;19921;-86
2023/05/03 09:33:48;;;;;;;;;;;17.50;37.30;;;15.93;41.46;102461.31;12259734;19;20344;-87
2023/05/03 09:37:50;;;;;;;;;;;17.50;37.60;;;15.66;41.63;102400.28;12254585;19;19989;-86
2023/05/03 09:41:51;;;;;;;;;;;17.50;37.30;;;16.10;41.60;102463.09;12255882;19;20468;-86
2023/05/03 09:46:06;;;;;;;;;;;17.60;37.40;;;16.08;41.50;102443.84;12257343;19;19911;-86
2023/05/03 09:50:07;;;;;;;;;;;17.60;37.10;;;16.27;41.34;102466.66;12250831;19;19948;-87
2023/05/03 09:54:09;;;;;;;;;;;17.70;37.00;;;16.23;41.20;102450.16;12256094;19;20341;-87
2023/05/03 09:58:11;;;;;;;;;;;17.70;37.20;;;16.35;41.40;102452.13;12252737;19;19919;-87
2023/05/03 10:02:13;;;;;;;;;;;17.80;37.40;;;16.45;41.40;102462.22;12256002;19;19952;-87
2023/05/03 10:06:21;;;;;;;;;;;17.90;37.10;;;16.60;41.27;102456.13;12254748;19;19925;-86
2023/05/03 10:10:22;;;;;;;;;;;17.90;37.10;;;16.44;41.01;102423.56;12256831;19;19918;-86
2023/05/03 10:14:24;;;;;;;;;;;18.00;36.10;;;16.51;40.99;102430.25;12255742;19;19914;-86
2023/05/03 10:18:30;;;;;;;;;;;18.00;36.50;;;16.68;40.84;102461.00;12251483;19;19917;-87
2023/05/03 10:22:31;;;;;;;;;;;18.00;34.50;;;16.50;40.83;102417.97;12256423;19;19922;-87
2023/05/03 10:26:33;;;;;;;;;;;18.10;36.10;;;16.73;41.09;102440.50;12257744;19;19927;-87
2023/05/03 10:30:36;;;;;;;;;;;18.10;36.20;;;16.81;40.79;102448.88;12256412;19;19983;-87
2023/05/03 10:34:39;;;;;;;;;;;18.20;35.80;;;16.85;40.79;102434.59;12257837;19;19960;-88
2023/05/03 10:38:41;;;;;;;;;;;18.30;36.00;;;16.94;40.75;102433.25;12256601;19;19923;-87
2023/05/03 10:43:03;;;;;;;;;;;18.30;36.00;;;17.01;40.74;102438.09;12255531;19;19974;-87
2023/05/03 10:47:23;;;;;;;;;;;18.30;36.50;;;17.10;40.67;102439.38;12255633;19;19923;-87
2023/05/03 10:51:29;;;;;;;;;;;18.40;36.70;;;17.18;40.80;102442.44;12261181;19;20379;-87
2023/05/03 10:55:31;;;;;;;;;;;18.40;36.70;;;17.10;40.60;102422.69;12263457;19;19930;-87
2023/05/03 10:59:46;;;;;;;;;;;18.50;36.80;;;17.17;40.51;102411.69;12257307;19;19915;-87
2023/05/03 11:04:04;;;;;;;;;;;18.60;36.80;;;17.38;40.50;102432.56;12252236;19;19940;-86
2023/05/03 11:08:17;;;;;;;;;;;18.60;36.80;;;17.37;40.52;102415.00;12256720;19;20330;-87
2023/05/03 11:12:18;;;;;;;;;;;18.80;36.00;;;17.58;40.45;102429.63;12258934;19;19922;-87
2023/05/03 11:16:20;;;;;;;;;;;18.90;36.50;;;17.49;40.41;102406.38;12257885;19;19939;-87
2023/05/03 11:20:22;;;;;;;;;;;18.90;35.50;;;17.55;40.52;102413.97;12256281;19;19922;-88
2023/05/03 11:24:23;;;;;;;;;;;19.00;36.00;;;17.67;40.29;102429.09;12254665;19;19970;-88
2023/05/03 11:28:25;;;;;;;;;;;19.00;36.70;;;17.78;40.48;102424.97;12255205;19;19923;-88
2023/05/03 11:32:27;;;;;;;;;;;19.10;35.90;;;17.60;40.36;102390.75;12258393;19;20350;-88
2023/05/03 11:36:29;;;;;;;;;;;19.10;35.90;;;17.81;40.43;102411.63;12256317;19;19915;-88
2023/05/03 11:40:31;;;;;;;;;;;19.20;36.20;;;17.88;40.30;102399.75;12257795;19;19994;-88
2023/05/03 11:44:33;;;;;;;;;;;19.30;36.30;;;18.07;40.18;102412.72;12252317;19;19911;-88
2023/05/03 11:48:35;;;;;;;;;;;19.30;36.40;;;18.04;40.25;102384.69;12252437;19;20645;-87
2023/05/03 11:52:37;;;;;;;;;;;19.50;36.40;;;18.16;40.39;102379.59;12255185;19;20344;-87
2023/05/03 11:56:38;;;;;;;;;;;19.50;36.50;;;18.37;40.12;102391.50;12254971;19;19978;-87
2023/05/03 12:00:50;;;;;;;;;;;19.60;36.30;;;18.46;40.29;102398.00;12254240;19;19935;-87
2023/05/03 12:04:55;;;;;;;;;;;19.70;35.60;;;18.60;39.92;102405.09;12249603;19;20355;-87
2023/05/03 12:08:57;;;;;;;;;;;19.90;36.20;;;18.57;40.04;102383.16;12248893;19;19919;-87
2023/05/03 12:12:59;;;;;;;;;;;19.90;36.30;;;18.58;39.91;102379.59;12253390;19;19914;-87
2023/05/03 12:17:01;;;;;;;;;;;20.00;35.00;;;18.49;39.98;102369.56;12255215;19;19921;-87
2023/05/03 12:21:02;;;;;;;;;;;20.00;34.00;;;18.68;39.80;102394.88;12249566;19;19930;-88
2023/05/03 12:25:06;;;;;;;;;;;20.00;35.10;;;18.46;39.57;102360.97;12251298;19;19919;-87
2023/05/03 12:29:07;;;;;;;;;;;19.90;35.40;;;18.59;39.64;102372.50;12249000;19;19919;-88
2023/05/03 12:33:09;;;;;;;;;;;19.90;34.70;;;18.67;39.80;102375.50;12251345;19;20344;-87
2023/05/03 12:37:10;;;;;;;;;;;20.00;35.00;;;18.77;39.80;102387.25;12250913;19;19925;-88
2023/05/03 12:41:12;;;;;;;;;;;20.00;35.80;;;18.61;39.77;102359.16;12250898;19;19918;-86
2023/05/03 12:45:14;;;;;;;;;;;20.10;35.80;;;18.68;39.60;102369.25;12244519;19;20274;-87
2023/05/03 12:49:15;;;;;;;;;;;20.10;35.30;;;18.60;39.69;102352.16;12246318;19;19922;-87
2023/05/03 12:53:17;;;;;;;;;;;20.00;35.90;;;18.76;39.67;102379.38;12244964;19;20416;-86
2023/05/03 12:57:18;;;;;;;;;;;20.00;35.60;;;18.83;39.61;102387.81;12247224;19;19930;-87
2023/05/03 13:01:20;;;;;;;;;;;20.10;36.00;;;18.83;39.21;102366.63;12244909;19;20378;-87
2023/05/03 13:05:21;;;;;;;;;;;20.10;35.70;;;18.81;39.26;102361.41;12247821;19;19926;-86
2023/05/03 13:09:23;;;;;;;;;;;20.10;35.30;;;18.85;39.28;102360.28;12244702;19;19926;-87
2023/05/03 13:13:25;;;;;;;;;;;20.20;35.70;;;18.96;39.20;102360.44;12248035;19;19919;-87
2023/05/03 13:17:26;;;;;;;;;;;20.20;36.00;;;19.11;39.44;102366.53;12243093;19;19915;-86
2023/05/03 13:21:30;;;;;;;;;;;20.30;36.00;;;19.09;39.39;102346.38;12249906;19;19911;-87
2023/05/03 13:25:32;;;;;;;;;;;20.40;35.80;;;19.27;39.29;102366.38;12246740;19;19915;-89
2023/05/03 13:29:33;;;;;;;;;;;20.40;35.30;;;19.31;39.32;102359.06;12244405;19;20307;-90
2023/05/03 13:33:36;;;;;;;;;;;20.50;34.10;;;19.34;38.81;102357.09;12249568;19;20337;-87
2023/05/03 13:37:38;;;;;;;;;;;20.50;34.20;;;19.24;38.73;102334.81;12245237;19;19923;-89
2023/05/03 13:41:40;;;;;;;;;;;20.50;35.20;;;19.23;38.84;102320.72;12247274;19;19946;-89
2023/05/03 13:45:42;;;;;;;;;;;20.60;35.30;;;19.23;38.79;102306.63;12248285;19;19911;-86
2023/05/03 13:49:43;;;;;;;;;;;20.60;35.20;;;19.35;38.83;102323.50;12242259;19;19927;-86
2023/05/03 13:53:44;;;;;;;;;;;20.60;34.80;;;19.18;38.45;102296.34;12246854;19;19935;-85
2023/05/03 13:57:46;;;;;;;;;;;20.60;34.80;;;19.32;38.67;102302.50;12243474;19;19922;-86
2023/05/03 14:01:47;;;;;;;;;;;20.60;34.70;;;19.45;38.77;102317.47;12246470;19;19919;-87
2023/05/03 14:05:49;;;;;;;;;;;20.60;35.20;;;19.48;38.92;102313.78;12246958;19;19925;-86
2023/05/03 14:09:50;;;;;;;;;;;20.70;34.90;;;19.47;38.78;102306.78;12242319;19;19926;-86
2023/05/03 14:13:52;;;;;;;;;;;20.70;34.00;;;19.59;38.47;102302.44;12252456;19;20011;-87
2023/05/03 14:17:53;;;;;;;;;;;20.80;34.90;;;19.65;38.65;102312.63;12256349;19;19974;-86
2023/05/03 14:21:57;;;;;;;;;;;20.80;34.80;;;19.60;38.34;102302.31;12257367;19;20269;-86
2023/05/03 14:26:00;;;;;;;;;;;20.80;35.30;;;19.69;38.34;102285.00;12256775;19;19914;-85
2023/05/03 14:30:02;;;;;;;;;;;20.90;35.30;;;19.81;38.18;102294.72;12252604;19;19918;-84
2023/05/03 14:34:05;;;;;;;;;;;21.00;35.10;;;19.72;38.36;102278.63;12256974;19;19915;-86
2023/05/03 14:38:06;;;;;;;;;;;21.00;34.70;;;19.66;38.50;102264.84;12254070;19;20349;-86
2023/05/03 14:42:09;;;;;;;;;;;21.00;34.90;;;19.85;38.46;102293.59;12258688;19;20401;-85
2023/05/03 14:46:11;;;;;;;;;;;21.00;34.80;;;19.79;38.29;102278.06;12256762;19;19932;-85
2023/05/03 14:50:12;;;;;;;;;;;21.10;32.90;;;19.67;38.06;102265.69;12256619;19;20329;-86
2023/05/03 14:54:13;;;;;;;;;;;21.00;32.70;;;19.73;38.34;102273.22;12254351;19;19929;-87
2023/05/03 14:58:15;;;;;;;;;;;21.00;34.40;;;19.75;38.29;102266.00;12253171;19;19907;-86
2023/05/03 15:02:17;;;;;;;;;;;21.00;35.00;;;19.69;38.29;102261.13;12254469;19;19923;-87
2023/05/03 15:06:30;;;;;;;;;;;21.00;34.60;;;19.83;37.94;102276.09;12256508;19;20271;-86
2023/05/03 15:10:32;;;;;;;;;;;20.90;34.80;;;19.72;37.90;102260.06;12256393;19;19941;-86
2023/05/03 15:14:34;;;;;;;;;;;21.00;35.20;;;19.88;38.19;102272.16;12244502;19;19918;-85
2023/05/03 15:18:35;;;;;;;;;;;21.00;35.10;;;19.96;37.91;102292.84;12251704;19;19915;-87
2023/05/03 15:22:37;;;;;;;;;;;21.00;34.30;;;19.65;37.57;102238.41;12251740;19;19919;-87
2023/05/03 15:26:38;;;;;;;;;;;21.00;34.30;;;19.91;38.02;102278.19;12248372;19;20277;-87
2023/05/03 15:30:40;;;;;;;;;;;21.00;34.60;;;19.73;37.52;102256.47;12243596;19;19919;-86
2023/05/03 15:34:41;;;;;;;;;;;21.00;34.80;;;19.70;37.62;102252.22;12251298;19;19994;-86
2023/05/03 15:38:43;;;;;;;;;;;21.00;34.60;;;19.68;37.49;102243.53;12247620;19;19923;-86
2023/05/03 15:42:44;;;;;;;;;;;20.90;34.90;;;19.77;37.62;102266.75;12250640;19;19978;-86
2023/05/03 15:46:46;;;;;;;;;;;20.90;34.80;;;19.85;37.34;102272.38;12246279;19;19933;-86
2023/05/03 15:50:48;;;;;;;;;;;20.90;34.20;;;19.86;37.43;102275.88;12248938;19;19946;-86
2023/05/03 15:54:50;;;;;;;;;;;20.90;34.90;;;19.70;37.47;102244.28;12251304;19;20333;-86
2023/05/03 15:58:52;;;;;;;;;;;20.90;34.80;;;19.81;37.55;102268.22;12245793;19;19918;-86
2023/05/03 16:02:54;;;;;;;;;;;20.80;31.60;;;19.72;36.93;102263.56;12247447;19;20262;-85
2023/05/03 16:06:56;;;;;;;;;;;20.80;34.60;;;19.62;37.56;102243.91;12246003;19;20585;-86
2023/05/03 16:10:58;;;;;;;;;;;20.80;34.30;;;19.56;37.31;102241.69;12250866;19;19911;-85
2023/05/03 16:15:00;;;;;;;;;;;20.70;34.30;;;19.52;37.39;102237.56;12248891;19;19979;-86
2023/05/03 16:19:02;;;;;;;;;;;20.70;34.70;;;19.49;37.01;102245.72;12246547;19;19914;-86
2023/05/03 16:23:03;;;;;;;;;;;20.60;34.40;;;19.40;37.32;102228.66;12246470;19;19914;-87
2023/05/03 16:27:05;;;;;;;;;;;20.60;34.50;;;19.37;37.17;102213.81;12248434;19;20232;-86
2023/05/03 16:31:06;;;;;;;;;;;20.60;34.60;;;19.56;37.15;102233.75;12247117;19;19923;-86
2023/05/03 16:35:08;;;;;;;;;;;20.60;34.80;;;19.49;37.08;102222.72;12246496;19;19914;-86
2023/05/03 16:39:11;;;;;;;;;;;20.60;34.50;;;19.38;36.84;102204.06;12246516;19;19911;-86
2023/05/03 16:43:14;;;;;;;;;;;20.60;34.50;;;19.50;37.20;102229.72;12243391;19;20332;-86
2023/05/03 16:47:15;;;;;;;;;;;20.60;34.80;;;19.50;36.74;102239.47;12239005;19;19922;-86
2023/05/03 16:51:20;;;;;;;;;;;20.50;34.50;;;19.41;36.82;102222.41;12249067;19;20304;-86
2023/05/03 16:55:21;;;;;;;;;;;20.50;33.80;;;19.42;36.90;102227.59;12247857;19;19918;-85
2023/05/03 16:59:23;;;;;;;;;;;20.50;34.70;;;19.45;36.91;102229.19;12246834;19;19923;-85
2023/05/03 17:03:25;;;;;;;;;;;20.50;34.50;;;19.43;36.93;102236.38;12246537;19;19923;-86
2023/05/03 17:07:26;;;;;;;;;;;20.50;34.50;;;19.42;37.06;102235.53;12246527;19;19922;-86
2023/05/03 17:11:28;;;;;;;;;;;20.40;34.80;;;19.37;36.68;102224.41;12248675;19;19911;-86
2023/05/03 17:15:31;;;;;;;;;;;20.40;34.80;;;19.38;36.85;102228.75;12247969;19;19934;-85
2023/05/03 17:19:33;;;;;;;;;;;20.40;34.60;;;19.35;36.65;102239.56;12245122;19;19918;-86
2023/05/03 17:23:36;;;;;;;;;;;20.40;34.90;;;19.36;36.78;102237.75;12245307;19;19926;-86
2023/05/03 17:27:38;;;;;;;;;;;20.40;34.90;;;19.11;36.97;102222.69;12247735;19;19915;-85
2023/05/03 17:31:39;;;;;;;;;;;20.30;34.90;;;19.20;36.80;102237.97;12246861;19;19927;-85
2023/05/03 17:35:40;;;;;;;;;;;20.30;34.80;;;19.09;36.86;102246.63;12250024;19;19919;-85
2023/05/03 17:39:42;;;;;;;;;;;20.20;33.30;;;18.80;36.86;102208.84;12244017;19;19970;-85
2023/05/03 17:43:43;;;;;;;;;;;20.10;33.90;;;18.82;36.83;102225.47;12243322;19;19926;-85
2023/05/03 17:47:45;;;;;;;;;;;20.00;34.40;;;18.82;36.59;102236.06;12245812;19;19907;-85
2023/05/03 17:51:47;;;;;;;;;;;19.90;34.40;;;18.81;36.71;102244.94;12255128;19;19919;-85
2023/05/03 17:55:50;;;;;;;;;;;19.80;34.70;;;18.58;36.76;102220.81;12257744;19;19942;-85
2023/05/03 17:59:51;;;;;;;;;;;19.80;34.90;;;18.73;36.82;102244.56;12251216;19;20337;-85
2023/05/03 18:03:53;;;;;;;;;;;19.70;35.00;;;18.43;36.60;102199.81;12255972;19;19919;-85
2023/05/03 18:07:54;;;;;;;;;;;19.60;35.10;;;18.68;36.85;102255.47;12253418;19;19911;-86
2023/05/03 18:11:58;;;;;;;;;;;19.60;35.10;;;18.44;36.59;102217.34;12258063;19;19923;-85